The Hangar Logo

METARs in Plain English
Latest METAR information for EGVN - BRIZE NORTON

EGVN 281850Z 21008KT 9999 FEW022 SCT080 BKN140 12/08 Q1019 NOSIG

In plain english is....

This is a METAR report for EGVN - BRIZE NORTON .
The report was made 52 minutes ago, at 18:50 UTC.
The wind was blowing at a speed of 8 knots (9.2 miles per hour, 4.1 metres per second) from the South/Southwest (210°).
The visibility was greater than 6.2 miles (greater than 10 kilometres).
There were a few clouds at a height of 2200 feet (671 metres), scattered clouds at a height of 8000 feet (2438 metres) and broken clouds at a height of 14000 feet (4267 metres).
The temperature was 12°C (54°F), a dew point of 8°C (46°F) and a relative humidity of 76.5%.
The altimeter setting (airfield QNH) was 1,019 hPa (30.09 inHg).
Other remarks NOSIG.

UK Mainland

Ireland

Channel Islands

France

Other



Enter
Tel: 07092 887559 - Fax: 07092 183262

Content copyright © 1999-2016 TheHangar.co.uk. All rights reserved.
Please send your questions, comments, or bug reports to the Webmaster.